createdAt,value
2019-05-05T00:00:38.137Z,1007.64
2019-05-05T00:01:18.862Z,1007.65
2019-05-05T00:01:59.337Z,1007.64
2019-05-05T00:02:39.922Z,1007.61
2019-05-05T00:03:20.404Z,1007.65
2019-05-05T00:04:00.825Z,1007.66
2019-05-05T00:04:41.198Z,1007.66
2019-05-05T00:05:21.661Z,1007.67
2019-05-05T00:06:02.100Z,1007.65
2019-05-05T00:06:44.497Z,1007.66
2019-05-05T00:07:25.178Z,1007.66
2019-05-05T00:08:04.866Z,1007.66
2019-05-05T00:08:45.639Z,1007.62
2019-05-05T00:09:25.337Z,1007.71
2019-05-05T00:10:05.301Z,1007.68
2019-05-05T00:10:45.805Z,1007.72
2019-05-05T00:11:26.266Z,1007.71
2019-05-05T00:12:06.676Z,1007.73
2019-05-05T00:12:47.121Z,1007.69
2019-05-05T00:13:27.650Z,1007.7
2019-05-05T00:14:08.039Z,1007.7
2019-05-05T00:14:48.594Z,1007.69
2019-05-05T00:16:10.204Z,1007.72
2019-05-05T00:16:50.543Z,1007.71
2019-05-05T00:17:31.198Z,1007.74
2019-05-05T00:18:11.574Z,1007.73
2019-05-05T00:18:54.066Z,1007.74
2019-05-05T00:19:33.837Z,1007.74
2019-05-05T00:20:14.465Z,1007.72
2019-05-05T00:20:55.171Z,1007.74
2019-05-05T00:21:34.435Z,1007.71
2019-05-05T00:22:15.188Z,1007.75
2019-05-05T00:23:35.833Z,1007.74
2019-05-05T00:24:16.953Z,1007.76
2019-05-05T00:24:57.374Z,1007.73
2019-05-05T00:26:19.243Z,1007.75
2019-05-05T00:26:59.772Z,1007.78
2019-05-05T00:27:42.517Z,1007.76
2019-05-05T00:28:24.678Z,1007.77
2019-05-05T00:29:04.339Z,1007.77
2019-05-05T00:29:45.290Z,1007.78
2019-05-05T00:30:24.890Z,1007.77
2019-05-05T00:31:04.744Z,1007.79
2019-05-05T00:31:46.362Z,1007.8
2019-05-05T00:32:26.726Z,1007.81
2019-05-05T00:33:49.234Z,1007.8
2019-05-05T00:34:30.801Z,1007.82
2019-05-05T00:35:11.455Z,1007.84
2019-05-05T00:35:52.011Z,1007.83
2019-05-05T00:36:34.982Z,1007.83
2019-05-05T00:37:15.126Z,1007.86
2019-05-05T00:37:54.568Z,1007.86
2019-05-05T00:38:35.305Z,1007.85
2019-05-05T00:39:15.460Z,1007.86
2019-05-05T00:39:56.858Z,1007.88
2019-05-05T00:40:36.887Z,1007.89
2019-05-05T00:41:19.430Z,1007.9
2019-05-05T00:42:00.214Z,1007.9
2019-05-05T00:42:40.854Z,1007.88
2019-05-05T00:46:57.538Z,1007.94
2019-05-05T00:47:54.211Z,1007.94
2019-05-05T00:56:45.078Z,1008.03
2019-05-05T00:57:29.091Z,1008.03
2019-05-05T00:58:09.605Z,1008.01
2019-05-05T00:58:50.846Z,1008.05
2019-05-05T00:59:31.622Z,1008.02
2019-05-05T01:00:15.162Z,1008.02
2019-05-05T01:00:54.928Z,1008.02
2019-05-05T01:02:18.497Z,1008.03
2019-05-05T01:02:58.952Z,1008.07
2019-05-05T01:03:39.382Z,1008.07
2019-05-05T01:04:19.759Z,1008.05
2019-05-05T01:05:01.087Z,1008.13
2019-05-05T01:05:40.999Z,1008.08
2019-05-05T01:06:23.062Z,1008.08
2019-05-05T01:07:05.009Z,1008.03
2019-05-05T01:07:44.835Z,1008.05
2019-05-05T01:08:25.496Z,1008.04
2019-05-05T01:09:05.914Z,1008.04
2019-05-05T01:09:46.867Z,1008.09
2019-05-05T01:10:30.036Z,1008.11
2019-05-05T01:11:10.687Z,1008.12
2019-05-05T01:11:51.077Z,1008.12
2019-05-05T01:12:34.833Z,1008.1
2019-05-05T01:13:15.177Z,1008.09
2019-05-05T01:13:58.361Z,1008.09
2019-05-05T01:14:38.687Z,1008.11
2019-05-05T01:15:19.536Z,1008.1
2019-05-05T01:15:59.956Z,1008.07
2019-05-05T01:17:22.627Z,1008.07
2019-05-05T01:18:04.673Z,1008.11
2019-05-05T01:18:45.006Z,1008.12
2019-05-05T01:19:25.520Z,1008.06
2019-05-05T01:20:07.111Z,1008.12
2019-05-05T01:20:48.285Z,1008.1
2019-05-05T01:21:28.960Z,1008.12
2019-05-05T01:22:09.332Z,1008.13
2019-05-05T01:22:49.687Z,1008.13
2019-05-05T01:23:30.100Z,1008.08
2019-05-05T01:24:10.718Z,1008.09
2019-05-05T01:24:50.844Z,1008.1
2019-05-05T01:25:31.267Z,1008.1
2019-05-05T01:26:11.699Z,1008.11
2019-05-05T01:26:52.111Z,1008.1
2019-05-05T01:27:34.535Z,1008.13
2019-05-05T01:28:14.305Z,1008.12
2019-05-05T01:28:56.077Z,1008.12
2019-05-05T01:29:34.771Z,1008.15
2019-05-05T01:30:15.205Z,1008.12
2019-05-05T01:30:55.610Z,1008.1
2019-05-05T01:31:35.922Z,1008.09
2019-05-05T01:32:16.226Z,1008.09
2019-05-05T01:32:56.622Z,1008.07
2019-05-05T01:33:37.068Z,1008.11
2019-05-05T01:34:17.415Z,1008.1
2019-05-05T01:34:58.025Z,1008.08
2019-05-05T01:35:38.388Z,1008.07
2019-05-05T01:36:18.762Z,1008.13
2019-05-05T01:36:59.130Z,1008.11
2019-05-05T01:37:39.475Z,1008.14
2019-05-05T01:38:20.606Z,1008.14
2019-05-05T01:39:04.278Z,1008.15
2019-05-05T01:40:29.170Z,1008.16
2019-05-05T01:41:09.558Z,1008.1
2019-05-05T01:41:51.817Z,1008.15
2019-05-05T01:42:32.713Z,1008.16
2019-05-05T01:43:14.810Z,1008.18
2019-05-05T01:43:55.257Z,1008.13
2019-05-05T01:44:38.997Z,1008.17
2019-05-05T01:45:24.188Z,1008.17
2019-05-05T01:46:05.011Z,1008.17
2019-05-05T01:46:44.480Z,1008.15
2019-05-05T01:47:25.473Z,1008.16
2019-05-05T01:48:05.270Z,1008.14
2019-05-05T01:48:50.937Z,1008.18
2019-05-05T01:49:29.234Z,1008.18
2019-05-05T01:50:18.151Z,1008.2
2019-05-05T01:50:49.986Z,1008.19
2019-05-05T01:51:30.380Z,1008.18
2019-05-05T01:52:10.832Z,1008.2
2019-05-05T01:52:51.208Z,1008.21
2019-05-05T01:53:31.607Z,1008.17
2019-05-05T01:54:12.005Z,1008.2
2019-05-05T01:54:54.239Z,1008.16
2019-05-05T01:55:34.675Z,1008.14
2019-05-05T01:56:15.176Z,1008.19
2019-05-05T01:56:55.309Z,1008.15
2019-05-05T01:57:34.489Z,1008.16
2019-05-05T01:58:15.246Z,1008.15
2019-05-05T01:58:54.898Z,1008.14
2019-05-05T01:59:35.403Z,1008.15
2019-05-05T02:00:15.600Z,1008.14
2019-05-05T02:00:56.090Z,1008.13
2019-05-05T02:01:36.351Z,1008.15
2019-05-05T02:02:57.130Z,1008.2
2019-05-05T02:03:37.543Z,1008.24
2019-05-05T02:04:17.952Z,1008.18
2019-05-05T02:04:58.353Z,1008.24
2019-05-05T02:13:05.399Z,1008.29
2019-05-05T02:13:54.541Z,1008.26
2019-05-05T02:14:40.745Z,1008.22
2019-05-05T02:15:30.098Z,1008.29
2019-05-05T02:16:11.421Z,1008.25
2019-05-05T02:18:55.342Z,1008.26
2019-05-05T02:19:49.751Z,1008.31
2019-05-05T02:26:21.982Z,1008.28
2019-05-05T02:27:01.618Z,1008.26
2019-05-05T02:27:41.982Z,1008.28
2019-05-05T02:28:24.109Z,1008.29
2019-05-05T02:29:04.676Z,1008.28
2019-05-05T02:29:44.635Z,1008.25
2019-05-05T02:30:26.613Z,1008.27
2019-05-05T02:31:05.512Z,1008.23
2019-05-05T02:31:45.360Z,1008.26
2019-05-05T02:32:25.798Z,1008.25
2019-05-05T02:33:06.233Z,1008.26
2019-05-05T02:33:46.036Z,1008.26
2019-05-05T02:34:26.037Z,1008.24
2019-05-05T02:35:06.680Z,1008.25
2019-05-05T02:35:48.765Z,1008.25
2019-05-05T02:36:29.227Z,1008.24
2019-05-05T02:37:09.492Z,1008.26
2019-05-05T02:37:49.901Z,1008.28
2019-05-05T02:38:30.355Z,1008.23
2019-05-05T02:39:10.714Z,1008.27
2019-05-05T02:39:58.745Z,1008.27
2019-05-05T02:40:31.516Z,1008.25
2019-05-05T02:41:11.955Z,1008.26
2019-05-05T02:41:54.753Z,1008.27
2019-05-05T02:42:35.108Z,1008.28
2019-05-05T02:43:15.022Z,1008.28
2019-05-05T02:43:55.649Z,1008.3
2019-05-05T02:44:34.704Z,1008.31
2019-05-05T02:45:15.459Z,1008.29
2019-05-05T02:45:55.254Z,1008.29
2019-05-05T02:46:35.780Z,1008.3
2019-05-05T02:47:15.800Z,1008.29
2019-05-05T02:47:55.959Z,1008.3
2019-05-05T02:48:36.334Z,1008.29
2019-05-05T02:49:16.741Z,1008.29
2019-05-05T02:49:57.146Z,1008.33
2019-05-05T02:50:50.656Z,1008.3
2019-05-05T02:51:17.943Z,1008.34
2019-05-05T02:51:58.410Z,1008.32
2019-05-05T02:52:38.811Z,1008.34
2019-05-05T02:53:19.206Z,1008.38
2019-05-05T02:54:00.000Z,1008.35
2019-05-05T02:54:41.032Z,1008.36
2019-05-05T02:55:20.711Z,1008.38
2019-05-05T02:56:03.935Z,1008.4
2019-05-05T02:56:43.615Z,1008.36
2019-05-05T02:57:24.001Z,1008.36
2019-05-05T02:58:05.763Z,1008.37
2019-05-05T02:59:31.051Z,1008.36
2019-05-05T03:00:13.334Z,1008.34
2019-05-05T03:00:51.711Z,1008.36
2019-05-05T03:01:34.022Z,1008.34
2019-05-05T03:02:14.441Z,1008.31
2019-05-05T03:02:53.850Z,1008.35
2019-05-05T03:03:34.332Z,1008.36
2019-05-05T03:04:54.281Z,1008.36
2019-05-05T03:05:34.705Z,1008.33
2019-05-05T03:06:15.304Z,1008.35
2019-05-05T03:07:35.895Z,1008.36
2019-05-05T03:08:16.904Z,1008.35
2019-05-05T03:08:57.210Z,1008.34
2019-05-05T03:09:37.595Z,1008.37
2019-05-05T03:10:18.225Z,1008.36
2019-05-05T03:10:58.664Z,1008.4
2019-05-05T03:11:40.334Z,1008.38
2019-05-05T03:12:20.575Z,1008.4
2019-05-05T03:13:01.623Z,1008.39
2019-05-05T03:13:44.292Z,1008.39
2019-05-05T03:15:04.529Z,1008.42
2019-05-05T03:15:44.906Z,1008.4
2019-05-05T03:16:27.097Z,1008.41
2019-05-05T03:17:07.413Z,1008.42
2019-05-05T03:17:47.814Z,1008.43
2019-05-05T03:18:28.713Z,1008.41
2019-05-05T03:19:09.655Z,1008.44
2019-05-05T03:19:49.686Z,1008.44
2019-05-05T03:20:31.002Z,1008.42
2019-05-05T03:21:13.809Z,1008.41
2019-05-05T03:21:51.782Z,1008.41
2019-05-05T03:22:34.032Z,1008.44
2019-05-05T03:23:13.603Z,1008.45
2019-05-05T03:23:54.679Z,1008.42
2019-05-05T03:24:34.070Z,1008.43
2019-05-05T03:25:13.896Z,1008.45
2019-05-05T03:25:54.612Z,1008.47
2019-05-05T03:26:34.731Z,1008.44
2019-05-05T03:27:15.221Z,1008.42
2019-05-05T03:27:55.625Z,1008.42
2019-05-05T03:28:35.965Z,1008.47
2019-05-05T03:29:16.280Z,1008.39
2019-05-05T03:29:56.794Z,1008.41
2019-05-05T03:30:37.048Z,1008.39
2019-05-05T03:31:17.450Z,1008.4
2019-05-05T03:31:57.781Z,1008.38
2019-05-05T03:32:38.170Z,1008.41
2019-05-05T03:33:24.981Z,1008.46
2019-05-05T03:34:05.821Z,1008.44
2019-05-05T03:34:44.567Z,1008.44
2019-05-05T03:35:24.414Z,1008.45
2019-05-05T03:36:04.755Z,1008.47
2019-05-05T03:36:45.198Z,1008.5
2019-05-05T03:37:25.518Z,1008.52
2019-05-05T03:38:05.938Z,1008.51
2019-05-05T03:38:46.288Z,1008.5
2019-05-05T03:40:07.089Z,1008.49
2019-05-05T03:40:47.485Z,1008.52
2019-05-05T03:41:28.165Z,1008.48
2019-05-05T03:42:08.457Z,1008.47
2019-05-05T03:42:48.973Z,1008.51
2019-05-05T03:43:29.259Z,1008.49
2019-05-05T03:44:09.734Z,1008.53
2019-05-05T03:44:50.018Z,1008.53
2019-05-05T03:45:30.980Z,1008.53
2019-05-05T03:46:11.323Z,1008.54
2019-05-05T03:46:51.699Z,1008.51
2019-05-05T03:47:36.105Z,1008.55
2019-05-05T03:48:16.304Z,1008.57
2019-05-05T03:48:57.514Z,1008.57
2019-05-05T03:49:38.215Z,1008.53
2019-05-05T03:50:18.379Z,1008.58
2019-05-05T03:50:58.764Z,1008.59
2019-05-05T03:53:38.486Z,1008.63
2019-05-05T03:54:37.329Z,1008.58
2019-05-05T03:55:28.571Z,1008.67
2019-05-05T03:59:27.130Z,1008.67
2019-05-05T04:00:07.040Z,1008.69
2019-05-05T04:00:47.421Z,1008.69
2019-05-05T04:01:28.102Z,1008.68
2019-05-05T04:02:10.188Z,1008.69
2019-05-05T04:02:50.550Z,1008.69
2019-05-05T04:03:30.944Z,1008.71
2019-05-05T04:04:11.384Z,1008.68
2019-05-05T04:04:51.933Z,1008.69
2019-05-05T04:05:33.979Z,1008.7
2019-05-05T04:06:14.495Z,1008.7
2019-05-05T04:06:53.987Z,1008.68
2019-05-05T04:07:33.556Z,1008.68
2019-05-05T04:08:14.462Z,1008.69
2019-05-05T04:08:54.277Z,1008.67
2019-05-05T04:09:34.738Z,1008.7
2019-05-05T04:10:15.065Z,1008.68
2019-05-05T04:10:55.442Z,1008.72
2019-05-05T04:11:35.774Z,1008.71
2019-05-05T04:12:16.184Z,1008.69
2019-05-05T04:12:56.611Z,1008.71
2019-05-05T04:13:36.960Z,1008.74
2019-05-05T04:14:18.444Z,1008.74
2019-05-05T04:14:57.790Z,1008.73
2019-05-05T04:16:18.604Z,1008.76
2019-05-05T04:16:59.033Z,1008.77
2019-05-05T04:17:39.477Z,1008.79
2019-05-05T04:18:19.822Z,1008.79
2019-05-05T04:19:00.262Z,1008.79
2019-05-05T04:19:40.643Z,1008.84
2019-05-05T04:20:21.062Z,1008.84
2019-05-05T04:21:01.490Z,1008.81
2019-05-05T04:21:41.832Z,1008.84
2019-05-05T04:22:23.736Z,1008.88
2019-05-05T04:23:03.695Z,1008.82
2019-05-05T04:23:44.155Z,1008.82
2019-05-05T04:24:23.897Z,1008.82
2019-05-05T04:25:04.589Z,1008.82
2019-05-05T04:25:44.205Z,1008.81
2019-05-05T04:26:24.660Z,1008.82
2019-05-05T04:27:05.041Z,1008.77
2019-05-05T04:27:45.384Z,1008.83
2019-05-05T04:28:25.772Z,1008.87
2019-05-05T05:08:33.767Z,1009.14
2019-05-05T05:09:14.692Z,1009.17
2019-05-05T05:09:54.932Z,1009.14
2019-05-05T05:10:35.933Z,1009.16
2019-05-05T05:11:16.301Z,1009.17
2019-05-05T05:11:56.843Z,1009.23
2019-05-05T05:12:37.472Z,1009.2
2019-05-05T05:13:17.683Z,1009.14
2019-05-05T05:13:58.038Z,1009.15
2019-05-05T05:14:38.808Z,1009.17
2019-05-05T05:15:19.318Z,1009.2
2019-05-05T05:20:48.166Z,1009.27
2019-05-05T05:23:05.340Z,1009.3
2019-05-05T05:23:59.475Z,1009.3
2019-05-05T05:25:57.721Z,1009.31
2019-05-05T05:26:38.192Z,1009.28
2019-05-05T11:07:05.409Z,1010.7
2019-05-05T11:07:47.190Z,1010.69
2019-05-05T11:08:30.483Z,1010.71
2019-05-05T11:09:08.190Z,1010.73
2019-05-05T11:09:48.565Z,1010.68
2019-05-05T11:10:29.105Z,1010.73
2019-05-05T11:11:13.670Z,1010.72
2019-05-05T11:11:53.708Z,1010.72
2019-05-05T11:12:34.051Z,1010.74
2019-05-05T11:13:14.485Z,1010.74
2019-05-05T11:13:54.869Z,1010.67
2019-05-05T11:14:35.229Z,1010.68
2019-05-05T11:15:15.765Z,1010.73
2019-05-05T11:15:56.230Z,1010.68
2019-05-05T11:16:43.854Z,1010.7
2019-05-05T11:17:24.852Z,1010.74
2019-05-05T11:18:05.050Z,1010.72
2019-05-05T11:19:27.517Z,1010.73
2019-05-05T11:20:08.007Z,1010.72
2019-05-05T11:20:50.780Z,1010.67
2019-05-05T11:21:31.728Z,1010.68
2019-05-05T11:22:14.482Z,1010.69
2019-05-05T11:22:55.068Z,1010.68
2019-05-05T11:23:35.418Z,1010.67
2019-05-05T11:24:15.817Z,1010.68
2019-05-05T11:25:00.650Z,1010.66
2019-05-05T11:25:36.554Z,1010.66
2019-05-05T11:26:18.691Z,1010.67
2019-05-05T11:27:00.825Z,1010.63
2019-05-05T11:27:43.429Z,1010.62
2019-05-05T11:28:21.664Z,1010.62
2019-05-05T11:29:04.263Z,1010.56
2019-05-05T11:29:44.404Z,1010.54
2019-05-05T11:30:26.849Z,1010.54
2019-05-05T11:31:06.253Z,1010.57
2019-05-05T11:32:44.739Z,1010.58
2019-05-05T11:33:25.342Z,1010.57
2019-05-05T11:34:05.765Z,1010.59
2019-05-05T11:34:46.132Z,1010.52
2019-05-05T11:35:26.495Z,1010.59
2019-05-05T11:36:07.077Z,1010.59
2019-05-05T11:36:47.473Z,1010.53
2019-05-05T11:37:27.846Z,1010.6
2019-05-05T11:38:09.171Z,1010.59
2019-05-05T11:38:49.549Z,1010.55
2019-05-05T11:39:30.908Z,1010.58
2019-05-05T11:40:13.018Z,1010.49
2019-05-05T11:40:54.398Z,1010.59
2019-05-05T11:41:32.735Z,1010.59
2019-05-05T11:42:14.594Z,1010.56
2019-05-05T11:42:54.103Z,1010.6
2019-05-05T11:43:34.192Z,1010.5
2019-05-05T11:44:15.113Z,1010.56
2019-05-05T11:44:54.901Z,1010.58
2019-05-05T11:45:35.275Z,1010.55
2019-05-05T11:46:17.573Z,1010.55
2019-05-05T11:46:57.934Z,1010.56
2019-05-05T11:47:38.233Z,1010.46
2019-05-05T11:48:18.722Z,1010.48
2019-05-05T11:48:59.116Z,1010.46
2019-05-05T11:49:39.498Z,1010.51
2019-05-05T11:50:20.131Z,1010.49
2019-05-05T11:51:01.653Z,1010.47
2019-05-05T11:51:43.652Z,1010.47
2019-05-05T11:52:22.702Z,1010.51
2019-05-05T11:53:03.874Z,1010.48
2019-05-05T11:53:44.637Z,1010.49
2019-05-05T11:54:24.651Z,1010.44
2019-05-05T11:55:11.334Z,1010.44
2019-05-05T11:57:20.686Z,1010.47
2019-05-05T11:58:03.552Z,1010.45
2019-05-05T11:58:44.311Z,1010.47
2019-05-05T11:59:24.420Z,1010.51
2019-05-05T12:00:04.872Z,1010.52
2019-05-05T12:00:45.340Z,1010.55
2019-05-05T12:01:25.695Z,1010.54
2019-05-05T12:02:06.071Z,1010.52
2019-05-05T12:02:46.631Z,1010.43
2019-05-05T12:03:28.820Z,1010.4
2019-05-05T12:04:09.323Z,1010.49
2019-05-05T12:04:49.767Z,1010.43
2019-05-05T12:05:31.037Z,1010.48
2019-05-05T12:06:11.619Z,1010.53
2019-05-05T12:06:52.021Z,1010.53
2019-05-05T12:07:34.203Z,1010.52
2019-05-05T12:08:14.590Z,1010.47
2019-05-05T12:08:53.225Z,1010.44
2019-05-05T12:09:33.792Z,1010.43
2019-05-05T12:10:14.163Z,1010.52
2019-05-05T12:11:35.602Z,1010.52
2019-05-05T12:12:18.036Z,1010.54
2019-05-05T12:12:58.527Z,1010.57
2019-05-05T12:13:40.398Z,1010.55
2019-05-05T12:14:24.349Z,1010.54
2019-05-05T12:15:03.800Z,1010.52
2019-05-05T12:15:42.135Z,1010.58
2019-05-05T12:16:23.888Z,1010.56
2019-05-05T12:17:04.545Z,1010.6
2019-05-05T12:17:44.499Z,1010.57
2019-05-05T12:18:24.846Z,1010.55
2019-05-05T12:19:07.710Z,1010.58
2019-05-05T12:19:48.540Z,1010.59
2019-05-05T12:20:29.678Z,1010.56
2019-05-05T12:21:13.944Z,1010.64
2019-05-05T12:21:54.734Z,1010.61
2019-05-05T12:22:34.133Z,1010.6
2019-05-05T12:23:14.158Z,1010.6
2019-05-05T12:24:36.122Z,1010.64
2019-05-05T12:25:24.926Z,1010.62
2019-05-05T12:25:59.518Z,1010.55
2019-05-05T12:27:20.872Z,1010.65
2019-05-05T12:28:01.236Z,1010.65
2019-05-05T12:28:43.791Z,1010.66
2019-05-05T12:29:24.351Z,1010.66
2019-05-05T12:30:03.750Z,1010.63
2019-05-05T12:33:38.584Z,1010.56
2019-05-05T12:34:19.064Z,1010.6
2019-05-05T12:35:00.164Z,1010.56
2019-05-05T12:35:40.961Z,1010.56
2019-05-05T12:36:23.640Z,1010.52
2019-05-05T12:37:05.076Z,1010.45
2019-05-05T12:37:45.491Z,1010.52
2019-05-05T12:38:26.066Z,1010.58
2019-05-05T12:39:08.949Z,1010.54
2019-05-05T12:39:54.518Z,1010.54
2019-05-05T12:40:34.300Z,1010.58
2019-05-05T12:41:20.608Z,1010.59
2019-05-05T12:42:43.766Z,1010.62
2019-05-05T12:43:24.635Z,1010.56
2019-05-05T12:44:07.349Z,1010.64
2019-05-05T12:44:48.651Z,1010.67
2019-05-05T12:45:29.594Z,1010.7
2019-05-05T12:46:10.367Z,1010.59
2019-05-05T12:46:53.048Z,1010.62
2019-05-05T12:47:34.991Z,1010.57
2019-05-05T12:48:16.060Z,1010.63
2019-05-05T12:48:58.352Z,1010.52
2019-05-05T12:49:38.921Z,1010.6
2019-05-05T12:50:20.057Z,1010.64
2019-05-05T12:51:04.157Z,1010.61
2019-05-05T12:51:43.603Z,1010.62
2019-05-05T12:52:24.554Z,1010.63
2019-05-05T12:53:07.618Z,1010.63
2019-05-05T12:53:48.454Z,1010.55
2019-05-05T12:54:29.373Z,1010.55
2019-05-05T12:55:10.473Z,1010.55
2019-05-05T12:55:53.791Z,1010.56
2019-05-05T12:56:35.400Z,1010.53
2019-05-05T12:57:19.588Z,1010.57
2019-05-05T12:58:03.460Z,1010.57
2019-05-05T12:58:43.961Z,1010.53
2019-05-05T12:59:24.855Z,1010.58
2019-05-05T13:00:04.316Z,1010.59
2019-05-05T13:00:45.856Z,1010.59
2019-05-05T13:01:25.414Z,1010.52
2019-05-05T13:02:05.825Z,1010.57
2019-05-05T13:02:46.448Z,1010.52
2019-05-05T13:03:27.058Z,1010.55
2019-05-05T13:04:07.626Z,1010.56
2019-05-05T13:04:48.284Z,1010.57
2019-05-05T13:06:09.334Z,1010.53
2019-05-05T13:06:49.873Z,1010.49
2019-05-05T13:07:30.223Z,1010.5
2019-05-05T13:08:10.657Z,1010.49
2019-05-05T13:08:51.023Z,1010.49
2019-05-05T13:09:33.392Z,1010.46
2019-05-05T13:10:14.043Z,1010.5
2019-05-05T13:10:54.694Z,1010.52
2019-05-05T13:11:36.443Z,1010.51
2019-05-05T13:12:17.214Z,1010.46
2019-05-05T13:23:37.147Z,1010.9
2019-05-05T13:24:21.100Z,1011.04
2019-05-05T13:25:05.052Z,1011.02
2019-05-05T13:25:55.039Z,1011.06
2019-05-05T13:26:25.941Z,1011.19
2019-05-05T13:27:10.481Z,1011.19
2019-05-05T13:27:48.455Z,1011.2
2019-05-05T13:28:28.868Z,1011.2
2019-05-05T13:29:09.243Z,1011.17
2019-05-05T13:29:49.744Z,1011.2
2019-05-05T13:30:30.160Z,1011.2
2019-05-05T13:31:13.696Z,1011.13
2019-05-05T13:31:51.820Z,1011.2
2019-05-05T13:32:33.540Z,1011.15
2019-05-05T13:33:14.121Z,1011.18
2019-05-05T13:33:54.771Z,1011.16
2019-05-05T13:34:33.514Z,1011.14
2019-05-05T13:35:14.405Z,1011.12
2019-05-05T13:35:54.376Z,1011.06
2019-05-05T13:36:34.714Z,1011.07
2019-05-05T13:37:15.142Z,1011.09
2019-05-05T13:37:57.454Z,1011.09
2019-05-05T13:38:37.886Z,1011.09
2019-05-05T13:39:20.824Z,1011.05
2019-05-05T13:40:01.181Z,1011.08
2019-05-05T13:40:43.361Z,1011.04
2019-05-05T13:41:25.203Z,1011.07
2019-05-05T13:42:05.633Z,1011.05
2019-05-05T13:42:46.015Z,1011.04
2019-05-05T13:43:26.434Z,1011.04
2019-05-05T13:44:06.790Z,1011.03
2019-05-05T13:44:47.145Z,1011.06
2019-05-05T13:45:27.555Z,1011.09
2019-05-05T13:46:07.955Z,1011.01
2019-05-05T13:46:48.396Z,1011.01
2019-05-05T13:48:09.206Z,1010.98
2019-05-05T13:48:49.601Z,1011.01
2019-05-05T13:49:29.945Z,1010.98
2019-05-05T13:50:10.373Z,1010.98
2019-05-05T13:50:50.781Z,1010.93
2019-05-05T13:51:31.163Z,1010.96
2019-05-05T13:52:13.716Z,1010.9
2019-05-05T13:52:52.064Z,1010.9
2019-05-05T13:53:34.210Z,1010.89
2019-05-05T13:54:13.579Z,1010.85
2019-05-05T13:54:54.330Z,1010.84
2019-05-05T13:55:34.641Z,1010.83
2019-05-05T13:56:15.298Z,1010.82
2019-05-05T13:56:54.386Z,1010.82
2019-05-05T13:57:34.756Z,1010.8
2019-05-05T13:58:15.245Z,1010.79
2019-05-05T13:58:55.687Z,1010.82
2019-05-05T13:59:36.122Z,1010.84
2019-05-05T14:00:16.542Z,1010.83
2019-05-05T14:00:56.933Z,1010.84
2019-05-05T14:01:37.347Z,1010.8
2019-05-05T14:02:18.691Z,1010.86
2019-05-05T14:02:59.651Z,1010.84
2019-05-05T14:03:39.300Z,1010.84
2019-05-05T14:04:19.726Z,1010.8
2019-05-05T14:05:00.168Z,1010.78
2019-05-05T14:05:40.617Z,1010.83
2019-05-05T14:06:20.932Z,1010.77
2019-05-05T14:07:04.093Z,1010.77
2019-05-05T14:07:43.947Z,1010.76
2019-05-05T14:08:24.358Z,1010.72
2019-05-05T14:09:06.751Z,1010.73
2019-05-05T14:09:47.144Z,1010.73
2019-05-05T14:11:10.605Z,1010.73
2019-05-05T14:11:55.040Z,1010.75
2019-05-05T14:12:35.362Z,1010.73
2019-05-05T14:13:34.262Z,1010.78
2019-05-05T14:14:14.513Z,1010.79
2019-05-05T14:14:54.919Z,1010.8
2019-05-05T14:15:35.538Z,1010.75
2019-05-05T14:16:15.994Z,1010.77
2019-05-05T14:16:56.760Z,1010.73
2019-05-05T14:17:37.164Z,1010.78
2019-05-05T14:18:17.626Z,1010.74
2019-05-05T14:18:58.051Z,1010.75
2019-05-05T14:19:38.861Z,1010.7
2019-05-05T14:20:19.298Z,1010.7
2019-05-05T14:20:59.754Z,1010.69
2019-05-05T14:21:40.226Z,1010.7
2019-05-05T14:29:38.431Z,1010.59
2019-05-05T14:30:18.558Z,1010.63
2019-05-05T14:30:58.965Z,1010.63
2019-05-05T14:31:39.480Z,1010.61
2019-05-05T14:32:19.797Z,1010.6
2019-05-05T14:33:00.378Z,1010.61
2019-05-05T14:33:40.910Z,1010.59
2019-05-05T14:34:21.828Z,1010.6
2019-05-05T14:35:03.959Z,1010.57
2019-05-05T14:35:43.366Z,1010.6
2019-05-05T14:36:24.491Z,1010.61
2019-05-05T14:37:04.915Z,1010.58
2019-05-05T14:41:44.559Z,1010.62
2019-05-05T14:42:23.631Z,1010.64
2019-05-05T14:43:04.549Z,1010.63
2019-05-05T14:43:45.517Z,1010.66
2019-05-05T14:44:26.379Z,1010.7
2019-05-05T14:45:07.106Z,1010.7
2019-05-05T14:45:48.280Z,1010.67
2019-05-05T14:46:28.951Z,1010.7
2019-05-05T14:47:09.305Z,1010.7
2019-05-05T14:47:50.064Z,1010.71
2019-05-05T14:48:31.223Z,1010.69
2019-05-05T14:49:11.560Z,1010.69
2019-05-05T14:49:56.015Z,1010.73
2019-05-05T14:50:34.708Z,1010.71
2019-05-05T14:51:15.118Z,1010.76
2019-05-05T14:51:55.935Z,1010.77
2019-05-05T14:52:36.877Z,1010.77
2019-05-05T14:53:18.415Z,1010.75
2019-05-05T14:53:59.364Z,1010.75
2019-05-05T14:54:40.198Z,1010.77
2019-05-05T14:55:25.551Z,1010.66
2019-05-05T14:56:06.250Z,1010.65
2019-05-05T14:58:22.895Z,1010.69
2019-05-05T14:59:04.678Z,1010.73
2019-05-05T14:59:46.664Z,1010.71
2019-05-05T15:00:27.349Z,1010.72
2019-05-05T15:01:07.808Z,1010.74
2019-05-05T15:01:49.316Z,1010.74
2019-05-05T15:02:29.754Z,1010.75
2019-05-05T15:03:11.337Z,1010.71
2019-05-05T15:03:53.487Z,1010.74
2019-05-05T15:05:14.176Z,1010.72
2019-05-05T15:05:55.144Z,1010.71
2019-05-05T15:06:35.065Z,1010.7
2019-05-05T15:07:15.485Z,1010.73
2019-05-05T15:07:56.326Z,1010.74
2019-05-05T15:08:38.162Z,1010.71
2019-05-05T15:09:19.647Z,1010.73
2019-05-05T15:10:01.689Z,1010.71
2019-05-05T15:11:20.882Z,1010.66
2019-05-05T15:12:03.569Z,1010.66
2019-05-05T15:12:41.828Z,1010.62
2019-05-05T15:13:24.103Z,1010.69
2019-05-05T15:14:06.331Z,1010.64
2019-05-05T15:14:43.931Z,1010.65
2019-05-05T15:15:23.932Z,1010.69
2019-05-05T15:16:04.376Z,1010.67
2019-05-05T15:16:44.751Z,1010.7
2019-05-05T15:17:25.338Z,1010.68
2019-05-05T15:18:05.573Z,1010.65
2019-05-05T15:18:46.120Z,1010.6
2019-05-05T15:19:26.730Z,1010.63
2019-05-05T15:20:07.831Z,1010.61
2019-05-05T15:20:48.049Z,1010.58
2019-05-05T15:21:28.820Z,1010.63
2019-05-05T15:22:09.370Z,1010.61
2019-05-05T15:22:54.091Z,1010.61
2019-05-05T15:23:34.450Z,1010.66
2019-05-05T15:24:15.173Z,1010.65
2019-05-05T15:24:55.816Z,1010.59
2019-05-05T15:25:36.670Z,1010.61
2019-05-05T15:26:17.998Z,1010.63
2019-05-05T15:27:00.266Z,1010.65
2019-05-05T15:27:41.336Z,1010.65
2019-05-05T15:28:21.836Z,1010.65
2019-05-05T15:29:02.265Z,1010.68
2019-05-05T15:31:02.541Z,1010.65
2019-05-05T15:31:43.493Z,1010.64
2019-05-05T15:32:24.103Z,1010.62
2019-05-05T15:33:04.587Z,1010.66
2019-05-05T15:33:44.507Z,1010.66
2019-05-05T15:34:26.015Z,1010.59
2019-05-05T15:35:06.723Z,1010.63
2019-05-05T15:35:47.267Z,1010.57
2019-05-05T15:36:29.649Z,1010.61
2019-05-05T15:37:08.149Z,1010.64
2019-05-05T15:37:51.225Z,1010.63
2019-05-05T15:38:31.675Z,1010.61
2019-05-05T15:40:51.942Z,1010.66
2019-05-05T15:41:34.116Z,1010.65
2019-05-05T15:42:13.710Z,1010.66
2019-05-05T15:42:55.309Z,1010.63
2019-05-05T15:43:35.678Z,1010.66
2019-05-05T15:44:16.117Z,1010.63
2019-05-05T15:44:56.666Z,1010.6
2019-05-05T15:45:37.115Z,1010.62
2019-05-05T15:46:18.095Z,1010.66
2019-05-05T15:46:58.792Z,1010.68
2019-05-05T15:47:39.150Z,1010.62
2019-05-05T15:48:19.527Z,1010.66
2019-05-05T15:48:59.902Z,1010.66
2019-05-05T15:50:20.797Z,1010.64
2019-05-05T15:51:01.401Z,1010.62
2019-05-05T15:51:41.575Z,1010.64
2019-05-05T15:52:24.202Z,1010.64
2019-05-05T15:53:03.797Z,1010.63
2019-05-05T15:53:44.631Z,1010.59
2019-05-05T15:54:25.107Z,1010.63
2019-05-05T15:55:05.565Z,1010.59
2019-05-05T15:55:45.915Z,1010.6
2019-05-05T15:56:26.283Z,1010.55
2019-05-05T15:57:08.705Z,1010.6
2019-05-05T15:57:47.130Z,1010.59
2019-05-05T15:58:29.220Z,1010.58
2019-05-05T15:59:10.059Z,1010.53
2019-05-05T15:59:51.843Z,1010.58
2019-05-05T16:02:06.775Z,1010.61
2019-05-05T16:02:46.990Z,1010.67
2019-05-05T16:03:29.754Z,1010.58
2019-05-05T16:04:09.657Z,1010.57
2019-05-05T16:04:50.025Z,1010.53
2019-05-05T16:05:30.437Z,1010.56
2019-05-05T16:08:31.051Z,1010.51
2019-05-05T16:09:10.661Z,1010.55
2019-05-05T16:09:53.669Z,1010.49